<?xml version="1.0" encoding="UTF-8" standalone="no" ?>
<gpx xmlns="http://www.topografix.com/GPX/1/1" xmlns:xsi="http://www.w3.org/2001/XMLSchema-instance" xsi:schemaLocation="http://www.topografix.com/GPX/1/1 http://www.topografix.com/GPX/1/1/gpx.xsd" version="1.1" creator="VisuGPX - https://www.visugpx.com">
  <metadata>
    <name>Lac des Monges</name>
    <desc><![CDATA[Boucle vers le Lac des Monges depuis le Village de Bayons. Super beau! à faire de Mai à Octobre]]></desc>
  </metadata>
  <trk>
    <name><![CDATA[OR-7626145--Bayons:Lac des Monges]]></name>
    <trkseg>
      <trkpt lat="44.34109" lon="6.17665">
        <ele>883</ele>
        <time>2017-09-09T11:08:26Z</time>
      </trkpt>
      <trkpt lat="44.34124" lon="6.1755">
        <ele>885</ele>
        <time>2017-09-09T11:10:26Z</time>
      </trkpt>
      <trkpt lat="44.34053" lon="6.17481">
        <ele>881</ele>
        <time>2017-09-09T11:12:26Z</time>
      </trkpt>
      <trkpt lat="44.33909" lon="6.17271">
        <ele>875</ele>
        <time>2017-09-09T11:14:26Z</time>
      </trkpt>
      <trkpt lat="44.33838" lon="6.17125">
        <ele>877</ele>
        <time>2017-09-09T11:16:26Z</time>
      </trkpt>
      <trkpt lat="44.33817" lon="6.1697">
        <ele>870</ele>
        <time>2017-09-09T11:18:26Z</time>
      </trkpt>
      <trkpt lat="44.33627" lon="6.16962">
        <ele>878</ele>
        <time>2017-09-09T11:20:26Z</time>
      </trkpt>
      <trkpt lat="44.33516" lon="6.17009">
        <ele>886</ele>
        <time>2017-09-09T11:22:26Z</time>
      </trkpt>
      <trkpt lat="44.33433" lon="6.16983">
        <ele>891</ele>
        <time>2017-09-09T11:24:26Z</time>
      </trkpt>
      <trkpt lat="44.33353" lon="6.17009">
        <ele>900</ele>
        <time>2017-09-09T11:26:26Z</time>
      </trkpt>
      <trkpt lat="44.33258" lon="6.16983">
        <ele>912</ele>
        <time>2017-09-09T11:28:26Z</time>
      </trkpt>
      <trkpt lat="44.33148" lon="6.17043">
        <ele>923</ele>
        <time>2017-09-09T11:30:26Z</time>
      </trkpt>
      <trkpt lat="44.33081" lon="6.17044">
        <ele>933</ele>
        <time>2017-09-09T11:32:26Z</time>
      </trkpt>
      <trkpt lat="44.33033" lon="6.17049">
        <ele>941</ele>
        <time>2017-09-09T11:34:26Z</time>
      </trkpt>
      <trkpt lat="44.32929" lon="6.17124">
        <ele>950</ele>
        <time>2017-09-09T11:36:26Z</time>
      </trkpt>
      <trkpt lat="44.3288" lon="6.1716">
        <ele>959</ele>
        <time>2017-09-09T11:38:26Z</time>
      </trkpt>
      <trkpt lat="44.32812" lon="6.17186">
        <ele>970</ele>
        <time>2017-09-09T11:40:26Z</time>
      </trkpt>
      <trkpt lat="44.32705" lon="6.17197">
        <ele>986</ele>
        <time>2017-09-09T11:42:26Z</time>
      </trkpt>
      <trkpt lat="44.32634" lon="6.17216">
        <ele>999</ele>
        <time>2017-09-09T11:44:26Z</time>
      </trkpt>
      <trkpt lat="44.32551" lon="6.1721">
        <ele>1018</ele>
        <time>2017-09-09T11:46:26Z</time>
      </trkpt>
      <trkpt lat="44.32514" lon="6.17218">
        <ele>1027</ele>
        <time>2017-09-09T11:48:26Z</time>
      </trkpt>
      <trkpt lat="44.32427" lon="6.17195">
        <ele>1046</ele>
        <time>2017-09-09T11:50:26Z</time>
      </trkpt>
      <trkpt lat="44.32424" lon="6.17167">
        <ele>1043</ele>
        <time>2017-09-09T11:52:26Z</time>
      </trkpt>
      <trkpt lat="44.32374" lon="6.17172">
        <ele>1057</ele>
        <time>2017-09-09T11:54:26Z</time>
      </trkpt>
      <trkpt lat="44.32304" lon="6.17156">
        <ele>1082</ele>
        <time>2017-09-09T11:56:26Z</time>
      </trkpt>
      <trkpt lat="44.32244" lon="6.17229">
        <ele>1108</ele>
        <time>2017-09-09T11:58:26Z</time>
      </trkpt>
      <trkpt lat="44.32206" lon="6.17276">
        <ele>1119</ele>
        <time>2017-09-09T12:00:26Z</time>
      </trkpt>
      <trkpt lat="44.32163" lon="6.17304">
        <ele>1131</ele>
        <time>2017-09-09T12:02:26Z</time>
      </trkpt>
      <trkpt lat="44.32179" lon="6.17269">
        <ele>1128</ele>
        <time>2017-09-09T12:04:26Z</time>
      </trkpt>
      <trkpt lat="44.32196" lon="6.17235">
        <ele>1125</ele>
        <time>2017-09-09T12:06:26Z</time>
      </trkpt>
      <trkpt lat="44.32217" lon="6.17152">
        <ele>1121</ele>
        <time>2017-09-09T12:08:26Z</time>
      </trkpt>
      <trkpt lat="44.32153" lon="6.17199">
        <ele>1146</ele>
        <time>2017-09-09T12:10:26Z</time>
      </trkpt>
      <trkpt lat="44.32094" lon="6.17204">
        <ele>1176</ele>
        <time>2017-09-09T12:12:26Z</time>
      </trkpt>
      <trkpt lat="44.32085" lon="6.17166">
        <ele>1184</ele>
        <time>2017-09-09T12:14:26Z</time>
      </trkpt>
      <trkpt lat="44.32081" lon="6.17187">
        <ele>1185</ele>
        <time>2017-09-09T12:16:26Z</time>
      </trkpt>
      <trkpt lat="44.32001" lon="6.17274">
        <ele>1228</ele>
        <time>2017-09-09T12:18:26Z</time>
      </trkpt>
      <trkpt lat="44.32014" lon="6.17179">
        <ele>1237</ele>
        <time>2017-09-09T12:20:26Z</time>
      </trkpt>
      <trkpt lat="44.31999" lon="6.1714">
        <ele>1256</ele>
        <time>2017-09-09T12:22:26Z</time>
      </trkpt>
      <trkpt lat="44.31974" lon="6.17186">
        <ele>1264</ele>
        <time>2017-09-09T12:24:26Z</time>
      </trkpt>
      <trkpt lat="44.3191" lon="6.17229">
        <ele>1295</ele>
        <time>2017-09-09T12:26:26Z</time>
      </trkpt>
      <trkpt lat="44.31839" lon="6.17284">
        <ele>1324</ele>
        <time>2017-09-09T12:28:26Z</time>
      </trkpt>
      <trkpt lat="44.31864" lon="6.17201">
        <ele>1330</ele>
        <time>2017-09-09T12:30:26Z</time>
      </trkpt>
      <trkpt lat="44.31863" lon="6.17169">
        <ele>1337</ele>
        <time>2017-09-09T12:32:26Z</time>
      </trkpt>
      <trkpt lat="44.31825" lon="6.17194">
        <ele>1354</ele>
        <time>2017-09-09T12:34:26Z</time>
      </trkpt>
      <trkpt lat="44.31781" lon="6.1717">
        <ele>1382</ele>
        <time>2017-09-09T12:36:26Z</time>
      </trkpt>
      <trkpt lat="44.31765" lon="6.17175">
        <ele>1390</ele>
        <time>2017-09-09T12:38:26Z</time>
      </trkpt>
      <trkpt lat="44.31752" lon="6.17195">
        <ele>1393</ele>
        <time>2017-09-09T12:40:26Z</time>
      </trkpt>
      <trkpt lat="44.31734" lon="6.17194">
        <ele>1403</ele>
        <time>2017-09-09T12:42:26Z</time>
      </trkpt>
      <trkpt lat="44.31712" lon="6.17171">
        <ele>1416</ele>
        <time>2017-09-09T12:44:26Z</time>
      </trkpt>
      <trkpt lat="44.31662" lon="6.17162">
        <ele>1440</ele>
        <time>2017-09-09T12:46:26Z</time>
      </trkpt>
      <trkpt lat="44.31658" lon="6.1717">
        <ele>1443</ele>
        <time>2017-09-09T12:48:26Z</time>
      </trkpt>
      <trkpt lat="44.31655" lon="6.17185">
        <ele>1445</ele>
        <time>2017-09-09T12:50:26Z</time>
      </trkpt>
      <trkpt lat="44.31646" lon="6.17186">
        <ele>1451</ele>
        <time>2017-09-09T12:52:26Z</time>
      </trkpt>
      <trkpt lat="44.3164" lon="6.17178">
        <ele>1454</ele>
        <time>2017-09-09T12:54:26Z</time>
      </trkpt>
      <trkpt lat="44.31637" lon="6.1719">
        <ele>1457</ele>
        <time>2017-09-09T12:56:26Z</time>
      </trkpt>
      <trkpt lat="44.31629" lon="6.17231">
        <ele>1465</ele>
        <time>2017-09-09T12:58:26Z</time>
      </trkpt>
      <trkpt lat="44.31617" lon="6.17251">
        <ele>1475</ele>
        <time>2017-09-09T13:00:26Z</time>
      </trkpt>
      <trkpt lat="44.31597" lon="6.1727">
        <ele>1488</ele>
        <time>2017-09-09T13:02:26Z</time>
      </trkpt>
      <trkpt lat="44.31546" lon="6.17377">
        <ele>1523</ele>
        <time>2017-09-09T13:04:26Z</time>
      </trkpt>
      <trkpt lat="44.31517" lon="6.17304">
        <ele>1541</ele>
        <time>2017-09-09T13:06:26Z</time>
      </trkpt>
      <trkpt lat="44.31514" lon="6.17238">
        <ele>1538</ele>
        <time>2017-09-09T13:08:26Z</time>
      </trkpt>
      <trkpt lat="44.31477" lon="6.17173">
        <ele>1540</ele>
        <time>2017-09-09T13:10:26Z</time>
      </trkpt>
      <trkpt lat="44.31466" lon="6.17148">
        <ele>1539</ele>
        <time>2017-09-09T13:12:26Z</time>
      </trkpt>
      <trkpt lat="44.31408" lon="6.17078">
        <ele>1545</ele>
        <time>2017-09-09T13:14:26Z</time>
      </trkpt>
      <trkpt lat="44.31382" lon="6.17074">
        <ele>1544</ele>
        <time>2017-09-09T13:16:26Z</time>
      </trkpt>
      <trkpt lat="44.31378" lon="6.17156">
        <ele>1550</ele>
        <time>2017-09-09T13:18:26Z</time>
      </trkpt>
      <trkpt lat="44.31331" lon="6.1724">
        <ele>1553</ele>
        <time>2017-09-09T13:20:26Z</time>
      </trkpt>
      <trkpt lat="44.31295" lon="6.17289">
        <ele>1563</ele>
        <time>2017-09-09T13:22:26Z</time>
      </trkpt>
      <trkpt lat="44.31274" lon="6.17173">
        <ele>1553</ele>
        <time>2017-09-09T13:24:26Z</time>
      </trkpt>
      <trkpt lat="44.31258" lon="6.17183">
        <ele>1556</ele>
        <time>2017-09-09T13:26:26Z</time>
      </trkpt>
      <trkpt lat="44.31228" lon="6.17128">
        <ele>1556</ele>
        <time>2017-09-09T13:28:26Z</time>
      </trkpt>
      <trkpt lat="44.31253" lon="6.1727">
        <ele>1566</ele>
        <time>2017-09-09T13:30:26Z</time>
      </trkpt>
      <trkpt lat="44.3115" lon="6.17418">
        <ele>1596</ele>
        <time>2017-09-09T13:32:26Z</time>
      </trkpt>
      <trkpt lat="44.31245" lon="6.17456">
        <ele>1584</ele>
        <time>2017-09-09T13:34:26Z</time>
      </trkpt>
      <trkpt lat="44.31289" lon="6.17619">
        <ele>1609</ele>
        <time>2017-09-09T13:36:26Z</time>
      </trkpt>
      <trkpt lat="44.31285" lon="6.17705">
        <ele>1626</ele>
        <time>2017-09-09T13:38:26Z</time>
      </trkpt>
      <trkpt lat="44.31386" lon="6.17682">
        <ele>1622</ele>
        <time>2017-09-09T13:40:26Z</time>
      </trkpt>
      <trkpt lat="44.31389" lon="6.17722">
        <ele>1632</ele>
        <time>2017-09-09T13:42:26Z</time>
      </trkpt>
      <trkpt lat="44.31311" lon="6.17746">
        <ele>1634</ele>
        <time>2017-09-09T13:44:26Z</time>
      </trkpt>
      <trkpt lat="44.31276" lon="6.1777">
        <ele>1642</ele>
        <time>2017-09-09T13:46:26Z</time>
      </trkpt>
      <trkpt lat="44.31211" lon="6.1765">
        <ele>1625</ele>
        <time>2017-09-09T13:48:26Z</time>
      </trkpt>
      <trkpt lat="44.31181" lon="6.17653">
        <ele>1631</ele>
        <time>2017-09-09T13:50:26Z</time>
      </trkpt>
      <trkpt lat="44.31115" lon="6.17718">
        <ele>1637</ele>
        <time>2017-09-09T13:52:26Z</time>
      </trkpt>
      <trkpt lat="44.31104" lon="6.17771">
        <ele>1645</ele>
        <time>2017-09-09T13:54:26Z</time>
      </trkpt>
      <trkpt lat="44.30943" lon="6.17901">
        <ele>1639</ele>
        <time>2017-09-09T13:56:26Z</time>
      </trkpt>
      <trkpt lat="44.31014" lon="6.18013">
        <ele>1639</ele>
        <time>2017-09-09T13:58:26Z</time>
      </trkpt>
      <trkpt lat="44.31042" lon="6.18116">
        <ele>1628</ele>
        <time>2017-09-09T14:00:26Z</time>
      </trkpt>
      <trkpt lat="44.31106" lon="6.18215">
        <ele>1634</ele>
        <time>2017-09-09T14:02:26Z</time>
      </trkpt>
      <trkpt lat="44.31051" lon="6.18223">
        <ele>1618</ele>
        <time>2017-09-09T14:04:26Z</time>
      </trkpt>
      <trkpt lat="44.30939" lon="6.18234">
        <ele>1595</ele>
        <time>2017-09-09T14:06:26Z</time>
      </trkpt>
      <trkpt lat="44.30872" lon="6.18287">
        <ele>1587</ele>
        <time>2017-09-09T14:08:26Z</time>
      </trkpt>
      <trkpt lat="44.30824" lon="6.18338">
        <ele>1585</ele>
        <time>2017-09-09T14:10:26Z</time>
      </trkpt>
      <trkpt lat="44.30792" lon="6.18343">
        <ele>1574</ele>
        <time>2017-09-09T14:12:26Z</time>
      </trkpt>
      <trkpt lat="44.30723" lon="6.18433">
        <ele>1569</ele>
        <time>2017-09-09T14:14:26Z</time>
      </trkpt>
      <trkpt lat="44.30669" lon="6.18482">
        <ele>1556</ele>
        <time>2017-09-09T14:16:26Z</time>
      </trkpt>
      <trkpt lat="44.30592" lon="6.18555">
        <ele>1547</ele>
        <time>2017-09-09T14:18:26Z</time>
      </trkpt>
      <trkpt lat="44.30558" lon="6.18624">
        <ele>1538</ele>
        <time>2017-09-09T14:20:26Z</time>
      </trkpt>
      <trkpt lat="44.30552" lon="6.18755">
        <ele>1516</ele>
        <time>2017-09-09T14:22:26Z</time>
      </trkpt>
      <trkpt lat="44.30587" lon="6.18794">
        <ele>1519</ele>
        <time>2017-09-09T14:24:26Z</time>
      </trkpt>
      <trkpt lat="44.30616" lon="6.1877">
        <ele>1536</ele>
        <time>2017-09-09T14:26:26Z</time>
      </trkpt>
      <trkpt lat="44.30631" lon="6.18811">
        <ele>1535</ele>
        <time>2017-09-09T14:28:26Z</time>
      </trkpt>
      <trkpt lat="44.30623" lon="6.18852">
        <ele>1528</ele>
        <time>2017-09-09T14:30:26Z</time>
      </trkpt>
      <trkpt lat="44.30618" lon="6.18905">
        <ele>1528</ele>
        <time>2017-09-09T14:32:26Z</time>
      </trkpt>
      <trkpt lat="44.30588" lon="6.18912">
        <ele>1512</ele>
        <time>2017-09-09T14:34:26Z</time>
      </trkpt>
      <trkpt lat="44.30556" lon="6.18963">
        <ele>1502</ele>
        <time>2017-09-09T14:36:26Z</time>
      </trkpt>
      <trkpt lat="44.30569" lon="6.19011">
        <ele>1511</ele>
        <time>2017-09-09T14:38:26Z</time>
      </trkpt>
      <trkpt lat="44.30553" lon="6.19041">
        <ele>1507</ele>
        <time>2017-09-09T14:40:26Z</time>
      </trkpt>
      <trkpt lat="44.30532" lon="6.19085">
        <ele>1502</ele>
        <time>2017-09-09T14:42:26Z</time>
      </trkpt>
      <trkpt lat="44.30545" lon="6.19116">
        <ele>1509</ele>
        <time>2017-09-09T14:44:26Z</time>
      </trkpt>
      <trkpt lat="44.30517" lon="6.19139">
        <ele>1497</ele>
        <time>2017-09-09T14:46:26Z</time>
      </trkpt>
      <trkpt lat="44.305" lon="6.19203">
        <ele>1491</ele>
        <time>2017-09-09T14:48:26Z</time>
      </trkpt>
      <trkpt lat="44.30494" lon="6.19259">
        <ele>1494</ele>
        <time>2017-09-09T14:50:26Z</time>
      </trkpt>
      <trkpt lat="44.30479" lon="6.19152">
        <ele>1486</ele>
        <time>2017-09-09T14:52:26Z</time>
      </trkpt>
      <trkpt lat="44.30489" lon="6.18883">
        <ele>1476</ele>
        <time>2017-09-09T14:54:26Z</time>
      </trkpt>
      <trkpt lat="44.3039" lon="6.18536">
        <ele>1448</ele>
        <time>2017-09-09T14:56:26Z</time>
      </trkpt>
      <trkpt lat="44.3038" lon="6.18626">
        <ele>1445</ele>
        <time>2017-09-09T14:58:26Z</time>
      </trkpt>
      <trkpt lat="44.3036" lon="6.18542">
        <ele>1438</ele>
        <time>2017-09-09T15:00:26Z</time>
      </trkpt>
      <trkpt lat="44.30356" lon="6.18452">
        <ele>1429</ele>
        <time>2017-09-09T15:02:26Z</time>
      </trkpt>
      <trkpt lat="44.30308" lon="6.183">
        <ele>1414</ele>
        <time>2017-09-09T15:04:26Z</time>
      </trkpt>
      <trkpt lat="44.30211" lon="6.18184">
        <ele>1408</ele>
        <time>2017-09-09T15:06:26Z</time>
      </trkpt>
      <trkpt lat="44.30145" lon="6.18094">
        <ele>1406</ele>
        <time>2017-09-09T15:08:26Z</time>
      </trkpt>
      <trkpt lat="44.30061" lon="6.18074">
        <ele>1391</ele>
        <time>2017-09-09T15:10:26Z</time>
      </trkpt>
      <trkpt lat="44.29973" lon="6.18008">
        <ele>1381</ele>
        <time>2017-09-09T15:12:26Z</time>
      </trkpt>
      <trkpt lat="44.29866" lon="6.17909">
        <ele>1374</ele>
        <time>2017-09-09T15:14:26Z</time>
      </trkpt>
      <trkpt lat="44.29733" lon="6.18116">
        <ele>1375</ele>
        <time>2017-09-09T15:16:26Z</time>
      </trkpt>
      <trkpt lat="44.29577" lon="6.18168">
        <ele>1379</ele>
        <time>2017-09-09T15:18:26Z</time>
      </trkpt>
      <trkpt lat="44.29457" lon="6.18339">
        <ele>1383</ele>
        <time>2017-09-09T15:20:26Z</time>
      </trkpt>
      <trkpt lat="44.293" lon="6.18562">
        <ele>1395</ele>
        <time>2017-09-09T15:22:26Z</time>
      </trkpt>
      <trkpt lat="44.29315" lon="6.18446">
        <ele>1402</ele>
        <time>2017-09-09T15:24:26Z</time>
      </trkpt>
      <trkpt lat="44.29257" lon="6.18356">
        <ele>1420</ele>
        <time>2017-09-09T15:26:26Z</time>
      </trkpt>
      <trkpt lat="44.29291" lon="6.18283">
        <ele>1421</ele>
        <time>2017-09-09T15:28:26Z</time>
      </trkpt>
      <trkpt lat="44.29294" lon="6.18172">
        <ele>1433</ele>
        <time>2017-09-09T15:30:26Z</time>
      </trkpt>
      <trkpt lat="44.29248" lon="6.18249">
        <ele>1433</ele>
        <time>2017-09-09T15:32:26Z</time>
      </trkpt>
      <trkpt lat="44.29171" lon="6.18245">
        <ele>1447</ele>
        <time>2017-09-09T15:34:26Z</time>
      </trkpt>
      <trkpt lat="44.29162" lon="6.18391">
        <ele>1442</ele>
        <time>2017-09-09T15:36:26Z</time>
      </trkpt>
      <trkpt lat="44.29097" lon="6.18399">
        <ele>1455</ele>
        <time>2017-09-09T15:38:26Z</time>
      </trkpt>
      <trkpt lat="44.29039" lon="6.18343">
        <ele>1475</ele>
        <time>2017-09-09T15:40:26Z</time>
      </trkpt>
      <trkpt lat="44.28965" lon="6.18369">
        <ele>1481</ele>
        <time>2017-09-09T15:42:26Z</time>
      </trkpt>
      <trkpt lat="44.28944" lon="6.18232">
        <ele>1501</ele>
        <time>2017-09-09T15:44:26Z</time>
      </trkpt>
      <trkpt lat="44.28885" lon="6.18262">
        <ele>1501</ele>
        <time>2017-09-09T15:46:26Z</time>
      </trkpt>
      <trkpt lat="44.28839" lon="6.18245">
        <ele>1504</ele>
        <time>2017-09-09T15:48:26Z</time>
      </trkpt>
      <trkpt lat="44.28855" lon="6.18133">
        <ele>1520</ele>
        <time>2017-09-09T15:50:26Z</time>
      </trkpt>
      <trkpt lat="44.2875" lon="6.1824">
        <ele>1514</ele>
        <time>2017-09-09T15:52:26Z</time>
      </trkpt>
      <trkpt lat="44.28664" lon="6.18146">
        <ele>1541</ele>
        <time>2017-09-09T15:54:26Z</time>
      </trkpt>
      <trkpt lat="44.28581" lon="6.18176">
        <ele>1549</ele>
        <time>2017-09-09T15:56:26Z</time>
      </trkpt>
      <trkpt lat="44.28283" lon="6.18215">
        <ele>1555</ele>
        <time>2017-09-09T15:58:26Z</time>
      </trkpt>
      <trkpt lat="44.28228" lon="6.18099">
        <ele>1556</ele>
        <time>2017-09-09T16:00:26Z</time>
      </trkpt>
      <trkpt lat="44.28231" lon="6.17923">
        <ele>1555</ele>
        <time>2017-09-09T16:02:26Z</time>
      </trkpt>
      <trkpt lat="44.28397" lon="6.1776">
        <ele>1571</ele>
        <time>2017-09-09T16:04:26Z</time>
      </trkpt>
      <trkpt lat="44.28455" lon="6.1764">
        <ele>1566</ele>
        <time>2017-09-09T16:06:26Z</time>
      </trkpt>
      <trkpt lat="44.28477" lon="6.17515">
        <ele>1558</ele>
        <time>2017-09-09T16:08:26Z</time>
      </trkpt>
      <trkpt lat="44.28566" lon="6.17459">
        <ele>1561</ele>
        <time>2017-09-09T16:10:26Z</time>
      </trkpt>
      <trkpt lat="44.28649" lon="6.17605">
        <ele>1554</ele>
        <time>2017-09-09T16:12:26Z</time>
      </trkpt>
      <trkpt lat="44.2883" lon="6.17584">
        <ele>1551</ele>
        <time>2017-09-09T16:14:26Z</time>
      </trkpt>
      <trkpt lat="44.28947" lon="6.17588">
        <ele>1545</ele>
        <time>2017-09-09T16:16:26Z</time>
      </trkpt>
      <trkpt lat="44.28996" lon="6.17562">
        <ele>1547</ele>
        <time>2017-09-09T16:18:26Z</time>
      </trkpt>
      <trkpt lat="44.29091" lon="6.17481">
        <ele>1558</ele>
        <time>2017-09-09T16:20:26Z</time>
      </trkpt>
      <trkpt lat="44.2917" lon="6.17532">
        <ele>1547</ele>
        <time>2017-09-09T16:22:26Z</time>
      </trkpt>
      <trkpt lat="44.29276" lon="6.17486">
        <ele>1533</ele>
        <time>2017-09-09T16:24:26Z</time>
      </trkpt>
      <trkpt lat="44.29273" lon="6.17424">
        <ele>1543</ele>
        <time>2017-09-09T16:26:26Z</time>
      </trkpt>
      <trkpt lat="44.29338" lon="6.17293">
        <ele>1531</ele>
        <time>2017-09-09T16:28:26Z</time>
      </trkpt>
      <trkpt lat="44.29321" lon="6.17238">
        <ele>1535</ele>
        <time>2017-09-09T16:30:26Z</time>
      </trkpt>
      <trkpt lat="44.29299" lon="6.17221">
        <ele>1541</ele>
        <time>2017-09-09T16:32:26Z</time>
      </trkpt>
      <trkpt lat="44.29306" lon="6.17082">
        <ele>1536</ele>
        <time>2017-09-09T16:34:26Z</time>
      </trkpt>
      <trkpt lat="44.29367" lon="6.17044">
        <ele>1529</ele>
        <time>2017-09-09T16:36:26Z</time>
      </trkpt>
      <trkpt lat="44.29347" lon="6.17001">
        <ele>1537</ele>
        <time>2017-09-09T16:38:26Z</time>
      </trkpt>
      <trkpt lat="44.29403" lon="6.16956">
        <ele>1539</ele>
        <time>2017-09-09T16:40:26Z</time>
      </trkpt>
      <trkpt lat="44.29442" lon="6.16935">
        <ele>1536</ele>
        <time>2017-09-09T16:42:26Z</time>
      </trkpt>
      <trkpt lat="44.29481" lon="6.16916">
        <ele>1530</ele>
        <time>2017-09-09T16:44:26Z</time>
      </trkpt>
      <trkpt lat="44.29479" lon="6.16765">
        <ele>1533</ele>
        <time>2017-09-09T16:46:26Z</time>
      </trkpt>
      <trkpt lat="44.29458" lon="6.16658">
        <ele>1526</ele>
        <time>2017-09-09T16:48:26Z</time>
      </trkpt>
      <trkpt lat="44.29509" lon="6.16602">
        <ele>1518</ele>
        <time>2017-09-09T16:50:26Z</time>
      </trkpt>
      <trkpt lat="44.29513" lon="6.16579">
        <ele>1516</ele>
        <time>2017-09-09T16:52:26Z</time>
      </trkpt>
      <trkpt lat="44.29554" lon="6.16563">
        <ele>1507</ele>
        <time>2017-09-09T16:54:26Z</time>
      </trkpt>
      <trkpt lat="44.29579" lon="6.16535">
        <ele>1504</ele>
        <time>2017-09-09T16:56:26Z</time>
      </trkpt>
      <trkpt lat="44.29601" lon="6.16524">
        <ele>1501</ele>
        <time>2017-09-09T16:58:26Z</time>
      </trkpt>
      <trkpt lat="44.29621" lon="6.16499">
        <ele>1498</ele>
        <time>2017-09-09T17:00:26Z</time>
      </trkpt>
      <trkpt lat="44.29654" lon="6.16492">
        <ele>1494</ele>
        <time>2017-09-09T17:02:26Z</time>
      </trkpt>
      <trkpt lat="44.29676" lon="6.16464">
        <ele>1489</ele>
        <time>2017-09-09T17:04:26Z</time>
      </trkpt>
      <trkpt lat="44.29689" lon="6.16433">
        <ele>1485</ele>
        <time>2017-09-09T17:06:26Z</time>
      </trkpt>
      <trkpt lat="44.29715" lon="6.16413">
        <ele>1480</ele>
        <time>2017-09-09T17:08:26Z</time>
      </trkpt>
      <trkpt lat="44.29728" lon="6.16399">
        <ele>1475</ele>
        <time>2017-09-09T17:10:26Z</time>
      </trkpt>
      <trkpt lat="44.29757" lon="6.16393">
        <ele>1470</ele>
        <time>2017-09-09T17:12:26Z</time>
      </trkpt>
      <trkpt lat="44.29773" lon="6.16339">
        <ele>1462</ele>
        <time>2017-09-09T17:14:26Z</time>
      </trkpt>
      <trkpt lat="44.29789" lon="6.16318">
        <ele>1455</ele>
        <time>2017-09-09T17:16:26Z</time>
      </trkpt>
      <trkpt lat="44.29812" lon="6.16289">
        <ele>1446</ele>
        <time>2017-09-09T17:18:26Z</time>
      </trkpt>
      <trkpt lat="44.29778" lon="6.16195">
        <ele>1430</ele>
        <time>2017-09-09T17:20:26Z</time>
      </trkpt>
      <trkpt lat="44.29757" lon="6.16164">
        <ele>1420</ele>
        <time>2017-09-09T17:22:26Z</time>
      </trkpt>
      <trkpt lat="44.29817" lon="6.1612">
        <ele>1425</ele>
        <time>2017-09-09T17:24:26Z</time>
      </trkpt>
      <trkpt lat="44.29896" lon="6.16123">
        <ele>1426</ele>
        <time>2017-09-09T17:26:26Z</time>
      </trkpt>
      <trkpt lat="44.2996" lon="6.16125">
        <ele>1420</ele>
        <time>2017-09-09T17:28:26Z</time>
      </trkpt>
      <trkpt lat="44.29989" lon="6.16112">
        <ele>1420</ele>
        <time>2017-09-09T17:30:26Z</time>
      </trkpt>
      <trkpt lat="44.30011" lon="6.16028">
        <ele>1428</ele>
        <time>2017-09-09T17:32:26Z</time>
      </trkpt>
      <trkpt lat="44.30027" lon="6.15969">
        <ele>1425</ele>
        <time>2017-09-09T17:34:26Z</time>
      </trkpt>
      <trkpt lat="44.3005" lon="6.15911">
        <ele>1418</ele>
        <time>2017-09-09T17:36:26Z</time>
      </trkpt>
      <trkpt lat="44.30097" lon="6.15848">
        <ele>1409</ele>
        <time>2017-09-09T17:38:26Z</time>
      </trkpt>
      <trkpt lat="44.30114" lon="6.15827">
        <ele>1406</ele>
        <time>2017-09-09T17:40:26Z</time>
      </trkpt>
      <trkpt lat="44.3013" lon="6.15796">
        <ele>1403</ele>
        <time>2017-09-09T17:42:26Z</time>
      </trkpt>
      <trkpt lat="44.30155" lon="6.15778">
        <ele>1400</ele>
        <time>2017-09-09T17:44:26Z</time>
      </trkpt>
      <trkpt lat="44.30183" lon="6.15749">
        <ele>1399</ele>
        <time>2017-09-09T17:46:26Z</time>
      </trkpt>
      <trkpt lat="44.30199" lon="6.15752">
        <ele>1397</ele>
        <time>2017-09-09T17:48:26Z</time>
      </trkpt>
      <trkpt lat="44.30216" lon="6.15737">
        <ele>1397</ele>
        <time>2017-09-09T17:50:26Z</time>
      </trkpt>
      <trkpt lat="44.30257" lon="6.15715">
        <ele>1397</ele>
        <time>2017-09-09T17:52:26Z</time>
      </trkpt>
      <trkpt lat="44.30305" lon="6.15624">
        <ele>1400</ele>
        <time>2017-09-09T17:54:26Z</time>
      </trkpt>
      <trkpt lat="44.30345" lon="6.15589">
        <ele>1390</ele>
        <time>2017-09-09T17:56:26Z</time>
      </trkpt>
      <trkpt lat="44.30347" lon="6.1555">
        <ele>1388</ele>
        <time>2017-09-09T17:58:26Z</time>
      </trkpt>
      <trkpt lat="44.30352" lon="6.15507">
        <ele>1385</ele>
        <time>2017-09-09T18:00:26Z</time>
      </trkpt>
      <trkpt lat="44.30348" lon="6.1547">
        <ele>1385</ele>
        <time>2017-09-09T18:02:26Z</time>
      </trkpt>
      <trkpt lat="44.30363" lon="6.15448">
        <ele>1377</ele>
        <time>2017-09-09T18:04:26Z</time>
      </trkpt>
      <trkpt lat="44.30404" lon="6.15411">
        <ele>1355</ele>
        <time>2017-09-09T18:06:26Z</time>
      </trkpt>
      <trkpt lat="44.30394" lon="6.15375">
        <ele>1357</ele>
        <time>2017-09-09T18:08:26Z</time>
      </trkpt>
      <trkpt lat="44.30414" lon="6.15296">
        <ele>1342</ele>
        <time>2017-09-09T18:10:26Z</time>
      </trkpt>
      <trkpt lat="44.30427" lon="6.15197">
        <ele>1333</ele>
        <time>2017-09-09T18:12:26Z</time>
      </trkpt>
      <trkpt lat="44.30484" lon="6.15203">
        <ele>1323</ele>
        <time>2017-09-09T18:14:26Z</time>
      </trkpt>
      <trkpt lat="44.30529" lon="6.15193">
        <ele>1313</ele>
        <time>2017-09-09T18:16:26Z</time>
      </trkpt>
      <trkpt lat="44.30474" lon="6.15041">
        <ele>1318</ele>
        <time>2017-09-09T18:18:26Z</time>
      </trkpt>
      <trkpt lat="44.30527" lon="6.14989">
        <ele>1309</ele>
        <time>2017-09-09T18:20:26Z</time>
      </trkpt>
      <trkpt lat="44.30607" lon="6.14969">
        <ele>1290</ele>
        <time>2017-09-09T18:22:26Z</time>
      </trkpt>
      <trkpt lat="44.30649" lon="6.14879">
        <ele>1285</ele>
        <time>2017-09-09T18:24:26Z</time>
      </trkpt>
      <trkpt lat="44.30659" lon="6.14814">
        <ele>1286</ele>
        <time>2017-09-09T18:26:26Z</time>
      </trkpt>
      <trkpt lat="44.30664" lon="6.1479">
        <ele>1287</ele>
        <time>2017-09-09T18:28:26Z</time>
      </trkpt>
      <trkpt lat="44.30728" lon="6.14755">
        <ele>1274</ele>
        <time>2017-09-09T18:30:26Z</time>
      </trkpt>
      <trkpt lat="44.3071" lon="6.14793">
        <ele>1274</ele>
        <time>2017-09-09T18:32:26Z</time>
      </trkpt>
      <trkpt lat="44.30703" lon="6.14831">
        <ele>1271</ele>
        <time>2017-09-09T18:34:26Z</time>
      </trkpt>
      <trkpt lat="44.3075" lon="6.14816">
        <ele>1259</ele>
        <time>2017-09-09T18:36:26Z</time>
      </trkpt>
      <trkpt lat="44.30768" lon="6.14822">
        <ele>1255</ele>
        <time>2017-09-09T18:38:26Z</time>
      </trkpt>
      <trkpt lat="44.30778" lon="6.14812">
        <ele>1255</ele>
        <time>2017-09-09T18:40:26Z</time>
      </trkpt>
      <trkpt lat="44.30805" lon="6.14815">
        <ele>1250</ele>
        <time>2017-09-09T18:42:26Z</time>
      </trkpt>
      <trkpt lat="44.30839" lon="6.14799">
        <ele>1246</ele>
        <time>2017-09-09T18:44:26Z</time>
      </trkpt>
      <trkpt lat="44.30855" lon="6.14836">
        <ele>1240</ele>
        <time>2017-09-09T18:46:26Z</time>
      </trkpt>
      <trkpt lat="44.30884" lon="6.14874">
        <ele>1233</ele>
        <time>2017-09-09T18:48:26Z</time>
      </trkpt>
      <trkpt lat="44.3089" lon="6.14903">
        <ele>1230</ele>
        <time>2017-09-09T18:50:26Z</time>
      </trkpt>
      <trkpt lat="44.30887" lon="6.14941">
        <ele>1228</ele>
        <time>2017-09-09T18:52:26Z</time>
      </trkpt>
      <trkpt lat="44.30893" lon="6.14981">
        <ele>1226</ele>
        <time>2017-09-09T18:54:26Z</time>
      </trkpt>
      <trkpt lat="44.30884" lon="6.15062">
        <ele>1221</ele>
        <time>2017-09-09T18:56:26Z</time>
      </trkpt>
      <trkpt lat="44.309" lon="6.15116">
        <ele>1216</ele>
        <time>2017-09-09T18:58:26Z</time>
      </trkpt>
      <trkpt lat="44.30889" lon="6.15141">
        <ele>1216</ele>
        <time>2017-09-09T19:00:26Z</time>
      </trkpt>
      <trkpt lat="44.30875" lon="6.15208">
        <ele>1217</ele>
        <time>2017-09-09T19:02:26Z</time>
      </trkpt>
      <trkpt lat="44.30901" lon="6.15358">
        <ele>1210</ele>
        <time>2017-09-09T19:04:26Z</time>
      </trkpt>
      <trkpt lat="44.3095" lon="6.15396">
        <ele>1200</ele>
        <time>2017-09-09T19:06:26Z</time>
      </trkpt>
      <trkpt lat="44.31049" lon="6.15427">
        <ele>1186</ele>
        <time>2017-09-09T19:08:26Z</time>
      </trkpt>
      <trkpt lat="44.31079" lon="6.15381">
        <ele>1185</ele>
        <time>2017-09-09T19:10:26Z</time>
      </trkpt>
      <trkpt lat="44.31153" lon="6.15411">
        <ele>1170</ele>
        <time>2017-09-09T19:12:26Z</time>
      </trkpt>
      <trkpt lat="44.31233" lon="6.1532">
        <ele>1163</ele>
        <time>2017-09-09T19:14:26Z</time>
      </trkpt>
      <trkpt lat="44.31181" lon="6.1549">
        <ele>1156</ele>
        <time>2017-09-09T19:16:26Z</time>
      </trkpt>
      <trkpt lat="44.31263" lon="6.15461">
        <ele>1144</ele>
        <time>2017-09-09T19:18:26Z</time>
      </trkpt>
      <trkpt lat="44.31255" lon="6.15391">
        <ele>1148</ele>
        <time>2017-09-09T19:20:26Z</time>
      </trkpt>
      <trkpt lat="44.31271" lon="6.15379">
        <ele>1146</ele>
        <time>2017-09-09T19:22:26Z</time>
      </trkpt>
      <trkpt lat="44.31293" lon="6.15443">
        <ele>1139</ele>
        <time>2017-09-09T19:24:26Z</time>
      </trkpt>
      <trkpt lat="44.31306" lon="6.15461">
        <ele>1138</ele>
        <time>2017-09-09T19:26:26Z</time>
      </trkpt>
      <trkpt lat="44.31321" lon="6.15452">
        <ele>1135</ele>
        <time>2017-09-09T19:28:26Z</time>
      </trkpt>
      <trkpt lat="44.31301" lon="6.15383">
        <ele>1137</ele>
        <time>2017-09-09T19:30:26Z</time>
      </trkpt>
      <trkpt lat="44.31315" lon="6.1537">
        <ele>1135</ele>
        <time>2017-09-09T19:32:26Z</time>
      </trkpt>
      <trkpt lat="44.31337" lon="6.15369">
        <ele>1129</ele>
        <time>2017-09-09T19:34:26Z</time>
      </trkpt>
      <trkpt lat="44.31365" lon="6.1532">
        <ele>1126</ele>
        <time>2017-09-09T19:36:26Z</time>
      </trkpt>
      <trkpt lat="44.31412" lon="6.1524">
        <ele>1114</ele>
        <time>2017-09-09T19:38:26Z</time>
      </trkpt>
      <trkpt lat="44.31418" lon="6.15205">
        <ele>1115</ele>
        <time>2017-09-09T19:40:26Z</time>
      </trkpt>
      <trkpt lat="44.31438" lon="6.15157">
        <ele>1111</ele>
        <time>2017-09-09T19:42:26Z</time>
      </trkpt>
      <trkpt lat="44.31445" lon="6.15062">
        <ele>1104</ele>
        <time>2017-09-09T19:44:26Z</time>
      </trkpt>
      <trkpt lat="44.31437" lon="6.15014">
        <ele>1106</ele>
        <time>2017-09-09T19:46:26Z</time>
      </trkpt>
      <trkpt lat="44.31458" lon="6.14886">
        <ele>1100</ele>
        <time>2017-09-09T19:48:26Z</time>
      </trkpt>
      <trkpt lat="44.31458" lon="6.14965">
        <ele>1095</ele>
        <time>2017-09-09T19:50:26Z</time>
      </trkpt>
      <trkpt lat="44.31459" lon="6.15023">
        <ele>1095</ele>
        <time>2017-09-09T19:52:26Z</time>
      </trkpt>
      <trkpt lat="44.31499" lon="6.15125">
        <ele>1083</ele>
        <time>2017-09-09T19:54:26Z</time>
      </trkpt>
      <trkpt lat="44.31488" lon="6.1504">
        <ele>1082</ele>
        <time>2017-09-09T19:56:26Z</time>
      </trkpt>
      <trkpt lat="44.31495" lon="6.14924">
        <ele>1076</ele>
        <time>2017-09-09T19:58:26Z</time>
      </trkpt>
      <trkpt lat="44.31511" lon="6.14874">
        <ele>1077</ele>
        <time>2017-09-09T20:00:26Z</time>
      </trkpt>
      <trkpt lat="44.31563" lon="6.14856">
        <ele>1065</ele>
        <time>2017-09-09T20:02:26Z</time>
      </trkpt>
      <trkpt lat="44.31604" lon="6.14825">
        <ele>1055</ele>
        <time>2017-09-09T20:04:26Z</time>
      </trkpt>
      <trkpt lat="44.31633" lon="6.148">
        <ele>1048</ele>
        <time>2017-09-09T20:06:26Z</time>
      </trkpt>
      <trkpt lat="44.3166" lon="6.14746">
        <ele>1039</ele>
        <time>2017-09-09T20:08:26Z</time>
      </trkpt>
      <trkpt lat="44.31689" lon="6.14698">
        <ele>1035</ele>
        <time>2017-09-09T20:10:26Z</time>
      </trkpt>
      <trkpt lat="44.31699" lon="6.14615">
        <ele>1037</ele>
        <time>2017-09-09T20:12:26Z</time>
      </trkpt>
      <trkpt lat="44.31712" lon="6.14554">
        <ele>1037</ele>
        <time>2017-09-09T20:14:26Z</time>
      </trkpt>
      <trkpt lat="44.31754" lon="6.14482">
        <ele>1021</ele>
        <time>2017-09-09T20:16:26Z</time>
      </trkpt>
      <trkpt lat="44.31777" lon="6.14417">
        <ele>1020</ele>
        <time>2017-09-09T20:18:26Z</time>
      </trkpt>
      <trkpt lat="44.31803" lon="6.14404">
        <ele>1007</ele>
        <time>2017-09-09T20:20:26Z</time>
      </trkpt>
      <trkpt lat="44.31848" lon="6.14321">
        <ele>1002</ele>
        <time>2017-09-09T20:22:26Z</time>
      </trkpt>
      <trkpt lat="44.31857" lon="6.14268">
        <ele>1003</ele>
        <time>2017-09-09T20:24:26Z</time>
      </trkpt>
      <trkpt lat="44.3187" lon="6.14285">
        <ele>994</ele>
        <time>2017-09-09T20:26:26Z</time>
      </trkpt>
      <trkpt lat="44.31861" lon="6.14334">
        <ele>993</ele>
        <time>2017-09-09T20:28:26Z</time>
      </trkpt>
      <trkpt lat="44.31843" lon="6.14364">
        <ele>996</ele>
        <time>2017-09-09T20:30:26Z</time>
      </trkpt>
      <trkpt lat="44.31821" lon="6.14424">
        <ele>991</ele>
        <time>2017-09-09T20:32:26Z</time>
      </trkpt>
      <trkpt lat="44.31818" lon="6.1445">
        <ele>991</ele>
        <time>2017-09-09T20:34:26Z</time>
      </trkpt>
      <trkpt lat="44.31806" lon="6.14448">
        <ele>998</ele>
        <time>2017-09-09T20:36:26Z</time>
      </trkpt>
      <trkpt lat="44.31793" lon="6.14527">
        <ele>999</ele>
        <time>2017-09-09T20:38:26Z</time>
      </trkpt>
      <trkpt lat="44.31804" lon="6.14521">
        <ele>995</ele>
        <time>2017-09-09T20:40:26Z</time>
      </trkpt>
      <trkpt lat="44.3183" lon="6.14472">
        <ele>982</ele>
        <time>2017-09-09T20:42:26Z</time>
      </trkpt>
      <trkpt lat="44.31855" lon="6.14427">
        <ele>982</ele>
        <time>2017-09-09T20:44:26Z</time>
      </trkpt>
      <trkpt lat="44.31878" lon="6.14369">
        <ele>982</ele>
        <time>2017-09-09T20:46:26Z</time>
      </trkpt>
      <trkpt lat="44.31921" lon="6.14298">
        <ele>967</ele>
        <time>2017-09-09T20:48:26Z</time>
      </trkpt>
      <trkpt lat="44.31932" lon="6.14278">
        <ele>968</ele>
        <time>2017-09-09T20:50:26Z</time>
      </trkpt>
      <trkpt lat="44.31967" lon="6.14274">
        <ele>970</ele>
        <time>2017-09-09T20:52:26Z</time>
      </trkpt>
      <trkpt lat="44.31994" lon="6.14225">
        <ele>959</ele>
        <time>2017-09-09T20:54:26Z</time>
      </trkpt>
      <trkpt lat="44.31996" lon="6.14194">
        <ele>953</ele>
        <time>2017-09-09T20:56:26Z</time>
      </trkpt>
      <trkpt lat="44.32023" lon="6.14166">
        <ele>951</ele>
        <time>2017-09-09T20:58:26Z</time>
      </trkpt>
      <trkpt lat="44.32063" lon="6.14128">
        <ele>952</ele>
        <time>2017-09-09T21:00:26Z</time>
      </trkpt>
      <trkpt lat="44.32072" lon="6.14102">
        <ele>946</ele>
        <time>2017-09-09T21:02:26Z</time>
      </trkpt>
      <trkpt lat="44.32085" lon="6.13998">
        <ele>926</ele>
        <time>2017-09-09T21:04:26Z</time>
      </trkpt>
      <trkpt lat="44.32105" lon="6.13942">
        <ele>923</ele>
        <time>2017-09-09T21:06:26Z</time>
      </trkpt>
      <trkpt lat="44.32131" lon="6.13911">
        <ele>922</ele>
        <time>2017-09-09T21:08:26Z</time>
      </trkpt>
      <trkpt lat="44.3218" lon="6.13856">
        <ele>919</ele>
        <time>2017-09-09T21:10:26Z</time>
      </trkpt>
      <trkpt lat="44.32231" lon="6.13839">
        <ele>916</ele>
        <time>2017-09-09T21:12:26Z</time>
      </trkpt>
      <trkpt lat="44.32251" lon="6.13844">
        <ele>919</ele>
        <time>2017-09-09T21:14:26Z</time>
      </trkpt>
      <trkpt lat="44.32301" lon="6.13833">
        <ele>897</ele>
        <time>2017-09-09T21:16:26Z</time>
      </trkpt>
      <trkpt lat="44.32324" lon="6.13876">
        <ele>917</ele>
        <time>2017-09-09T21:18:26Z</time>
      </trkpt>
      <trkpt lat="44.32417" lon="6.13905">
        <ele>882</ele>
        <time>2017-09-09T21:20:26Z</time>
      </trkpt>
      <trkpt lat="44.32444" lon="6.13909">
        <ele>879</ele>
        <time>2017-09-09T21:22:26Z</time>
      </trkpt>
      <trkpt lat="44.32473" lon="6.13886">
        <ele>865</ele>
        <time>2017-09-09T21:24:26Z</time>
      </trkpt>
      <trkpt lat="44.32525" lon="6.13934">
        <ele>875</ele>
        <time>2017-09-09T21:26:26Z</time>
      </trkpt>
      <trkpt lat="44.3254" lon="6.13937">
        <ele>873</ele>
        <time>2017-09-09T21:28:26Z</time>
      </trkpt>
      <trkpt lat="44.32567" lon="6.13921">
        <ele>863</ele>
        <time>2017-09-09T21:30:26Z</time>
      </trkpt>
      <trkpt lat="44.32645" lon="6.13976">
        <ele>860</ele>
        <time>2017-09-09T21:32:26Z</time>
      </trkpt>
      <trkpt lat="44.32676" lon="6.1399">
        <ele>859</ele>
        <time>2017-09-09T21:34:26Z</time>
      </trkpt>
      <trkpt lat="44.32697" lon="6.13949">
        <ele>859</ele>
        <time>2017-09-09T21:36:26Z</time>
      </trkpt>
      <trkpt lat="44.32698" lon="6.13922">
        <ele>858</ele>
        <time>2017-09-09T21:38:26Z</time>
      </trkpt>
      <trkpt lat="44.32683" lon="6.13877">
        <ele>848</ele>
        <time>2017-09-09T21:40:26Z</time>
      </trkpt>
      <trkpt lat="44.32687" lon="6.13763">
        <ele>833</ele>
        <time>2017-09-09T21:42:26Z</time>
      </trkpt>
      <trkpt lat="44.32728" lon="6.13722">
        <ele>831</ele>
        <time>2017-09-09T21:44:26Z</time>
      </trkpt>
      <trkpt lat="44.32788" lon="6.13692">
        <ele>829</ele>
        <time>2017-09-09T21:46:26Z</time>
      </trkpt>
      <trkpt lat="44.32841" lon="6.13601">
        <ele>814</ele>
        <time>2017-09-09T21:48:26Z</time>
      </trkpt>
      <trkpt lat="44.32904" lon="6.13515">
        <ele>801</ele>
        <time>2017-09-09T21:50:26Z</time>
      </trkpt>
      <trkpt lat="44.32936" lon="6.13479">
        <ele>800</ele>
        <time>2017-09-09T21:52:26Z</time>
      </trkpt>
      <trkpt lat="44.32941" lon="6.13497">
        <ele>801</ele>
        <time>2017-09-09T21:54:26Z</time>
      </trkpt>
      <trkpt lat="44.32935" lon="6.13533">
        <ele>801</ele>
        <time>2017-09-09T21:56:26Z</time>
      </trkpt>
      <trkpt lat="44.32948" lon="6.13624">
        <ele>804</ele>
        <time>2017-09-09T21:58:26Z</time>
      </trkpt>
      <trkpt lat="44.32971" lon="6.13762">
        <ele>811</ele>
        <time>2017-09-09T22:00:26Z</time>
      </trkpt>
      <trkpt lat="44.32995" lon="6.13899">
        <ele>810</ele>
        <time>2017-09-09T22:02:26Z</time>
      </trkpt>
      <trkpt lat="44.33018" lon="6.14035">
        <ele>811</ele>
        <time>2017-09-09T22:04:26Z</time>
      </trkpt>
      <trkpt lat="44.33016" lon="6.14109">
        <ele>812</ele>
        <time>2017-09-09T22:06:26Z</time>
      </trkpt>
      <trkpt lat="44.33007" lon="6.14138">
        <ele>813</ele>
        <time>2017-09-09T22:08:26Z</time>
      </trkpt>
      <trkpt lat="44.33016" lon="6.14169">
        <ele>814</ele>
        <time>2017-09-09T22:10:26Z</time>
      </trkpt>
      <trkpt lat="44.33002" lon="6.14263">
        <ele>816</ele>
        <time>2017-09-09T22:12:26Z</time>
      </trkpt>
      <trkpt lat="44.33006" lon="6.14317">
        <ele>818</ele>
        <time>2017-09-09T22:14:26Z</time>
      </trkpt>
      <trkpt lat="44.32999" lon="6.14347">
        <ele>820</ele>
        <time>2017-09-09T22:16:26Z</time>
      </trkpt>
      <trkpt lat="44.32998" lon="6.14364">
        <ele>822</ele>
        <time>2017-09-09T22:18:26Z</time>
      </trkpt>
      <trkpt lat="44.33046" lon="6.14428">
        <ele>825</ele>
        <time>2017-09-09T22:20:26Z</time>
      </trkpt>
      <trkpt lat="44.33063" lon="6.14519">
        <ele>824</ele>
        <time>2017-09-09T22:22:26Z</time>
      </trkpt>
      <trkpt lat="44.33054" lon="6.14555">
        <ele>826</ele>
        <time>2017-09-09T22:24:26Z</time>
      </trkpt>
      <trkpt lat="44.3306" lon="6.14578">
        <ele>825</ele>
        <time>2017-09-09T22:26:26Z</time>
      </trkpt>
      <trkpt lat="44.33056" lon="6.1461">
        <ele>827</ele>
        <time>2017-09-09T22:28:26Z</time>
      </trkpt>
      <trkpt lat="44.33051" lon="6.14631">
        <ele>828</ele>
        <time>2017-09-09T22:30:26Z</time>
      </trkpt>
      <trkpt lat="44.33049" lon="6.14752">
        <ele>835</ele>
        <time>2017-09-09T22:32:26Z</time>
      </trkpt>
      <trkpt lat="44.33044" lon="6.14789">
        <ele>837</ele>
        <time>2017-09-09T22:34:26Z</time>
      </trkpt>
      <trkpt lat="44.33037" lon="6.14836">
        <ele>841</ele>
        <time>2017-09-09T22:36:26Z</time>
      </trkpt>
      <trkpt lat="44.33055" lon="6.14885">
        <ele>845</ele>
        <time>2017-09-09T22:38:26Z</time>
      </trkpt>
      <trkpt lat="44.33096" lon="6.14935">
        <ele>839</ele>
        <time>2017-09-09T22:40:26Z</time>
      </trkpt>
      <trkpt lat="44.33104" lon="6.14966">
        <ele>842</ele>
        <time>2017-09-09T22:42:26Z</time>
      </trkpt>
      <trkpt lat="44.33105" lon="6.15021">
        <ele>848</ele>
        <time>2017-09-09T22:44:26Z</time>
      </trkpt>
      <trkpt lat="44.33106" lon="6.1504">
        <ele>850</ele>
        <time>2017-09-09T22:46:26Z</time>
      </trkpt>
      <trkpt lat="44.33123" lon="6.15073">
        <ele>850</ele>
        <time>2017-09-09T22:48:26Z</time>
      </trkpt>
      <trkpt lat="44.33118" lon="6.15106">
        <ele>856</ele>
        <time>2017-09-09T22:50:26Z</time>
      </trkpt>
      <trkpt lat="44.33125" lon="6.15125">
        <ele>857</ele>
        <time>2017-09-09T22:52:26Z</time>
      </trkpt>
      <trkpt lat="44.33156" lon="6.15149">
        <ele>852</ele>
        <time>2017-09-09T22:54:26Z</time>
      </trkpt>
      <trkpt lat="44.33166" lon="6.15198">
        <ele>857</ele>
        <time>2017-09-09T22:56:26Z</time>
      </trkpt>
      <trkpt lat="44.33163" lon="6.15238">
        <ele>863</ele>
        <time>2017-09-09T22:58:26Z</time>
      </trkpt>
      <trkpt lat="44.33221" lon="6.15297">
        <ele>864</ele>
        <time>2017-09-09T23:00:26Z</time>
      </trkpt>
      <trkpt lat="44.33243" lon="6.15317">
        <ele>864</ele>
        <time>2017-09-09T23:02:26Z</time>
      </trkpt>
      <trkpt lat="44.33314" lon="6.1527">
        <ele>845</ele>
        <time>2017-09-09T23:04:26Z</time>
      </trkpt>
      <trkpt lat="44.33345" lon="6.1536">
        <ele>851</ele>
        <time>2017-09-09T23:06:26Z</time>
      </trkpt>
      <trkpt lat="44.33382" lon="6.1539">
        <ele>848</ele>
        <time>2017-09-09T23:08:26Z</time>
      </trkpt>
      <trkpt lat="44.33457" lon="6.15433">
        <ele>843</ele>
        <time>2017-09-09T23:10:26Z</time>
      </trkpt>
      <trkpt lat="44.33459" lon="6.15564">
        <ele>843</ele>
        <time>2017-09-09T23:12:26Z</time>
      </trkpt>
      <trkpt lat="44.33534" lon="6.15635">
        <ele>845</ele>
        <time>2017-09-09T23:14:26Z</time>
      </trkpt>
      <trkpt lat="44.33557" lon="6.15699">
        <ele>847</ele>
        <time>2017-09-09T23:16:26Z</time>
      </trkpt>
      <trkpt lat="44.33626" lon="6.158">
        <ele>855</ele>
        <time>2017-09-09T23:18:26Z</time>
      </trkpt>
      <trkpt lat="44.3364" lon="6.15991">
        <ele>861</ele>
        <time>2017-09-09T23:20:26Z</time>
      </trkpt>
      <trkpt lat="44.33692" lon="6.16175">
        <ele>869</ele>
        <time>2017-09-09T23:22:26Z</time>
      </trkpt>
      <trkpt lat="44.33591" lon="6.16169">
        <ele>858</ele>
        <time>2017-09-09T23:24:26Z</time>
      </trkpt>
      <trkpt lat="44.33592" lon="6.16244">
        <ele>859</ele>
        <time>2017-09-09T23:26:26Z</time>
      </trkpt>
      <trkpt lat="44.33631" lon="6.16266">
        <ele>861</ele>
        <time>2017-09-09T23:28:26Z</time>
      </trkpt>
      <trkpt lat="44.33657" lon="6.16366">
        <ele>858</ele>
        <time>2017-09-09T23:30:26Z</time>
      </trkpt>
      <trkpt lat="44.33657" lon="6.16426">
        <ele>858</ele>
        <time>2017-09-09T23:32:26Z</time>
      </trkpt>
      <trkpt lat="44.33723" lon="6.16572">
        <ele>860</ele>
        <time>2017-09-09T23:34:26Z</time>
      </trkpt>
      <trkpt lat="44.33801" lon="6.16808">
        <ele>866</ele>
        <time>2017-09-09T23:36:26Z</time>
      </trkpt>
      <trkpt lat="44.33838" lon="6.16926">
        <ele>869</ele>
        <time>2017-09-09T23:38:26Z</time>
      </trkpt>
      <trkpt lat="44.33833" lon="6.17006">
        <ele>871</ele>
        <time>2017-09-09T23:40:26Z</time>
      </trkpt>
      <trkpt lat="44.33855" lon="6.17051">
        <ele>874</ele>
        <time>2017-09-09T23:42:26Z</time>
      </trkpt>
      <trkpt lat="44.33862" lon="6.17141">
        <ele>876</ele>
        <time>2017-09-09T23:44:26Z</time>
      </trkpt>
      <trkpt lat="44.33839" lon="6.17199">
        <ele>880</ele>
        <time>2017-09-09T23:46:26Z</time>
      </trkpt>
      <trkpt lat="44.3382" lon="6.17336">
        <ele>886</ele>
        <time>2017-09-09T23:48:26Z</time>
      </trkpt>
      <trkpt lat="44.33842" lon="6.17426">
        <ele>891</ele>
        <time>2017-09-09T23:50:26Z</time>
      </trkpt>
      <trkpt lat="44.33894" lon="6.1748">
        <ele>886</ele>
        <time>2017-09-09T23:52:26Z</time>
      </trkpt>
      <trkpt lat="44.33885" lon="6.17658">
        <ele>892</ele>
        <time>2017-09-09T23:54:26Z</time>
      </trkpt>
      <trkpt lat="44.33931" lon="6.17669">
        <ele>888</ele>
        <time>2017-09-09T23:56:26Z</time>
      </trkpt>
      <trkpt lat="44.34078" lon="6.17669">
        <ele>882</ele>
        <time>2017-09-09T23:58:26Z</time>
      </trkpt>
    </trkseg>
  </trk>
</gpx>